createdAt,value
2019-05-12T00:00:35.254Z,9.20
2019-05-12T00:03:05.006Z,9.20
2019-05-12T00:05:34.760Z,9.20
2019-05-12T00:08:04.550Z,9.20
2019-05-12T00:10:34.370Z,9.20
2019-05-12T00:13:04.065Z,9.10
2019-05-12T00:15:33.736Z,9.00
2019-05-12T00:18:04.515Z,8.90
2019-05-12T00:20:34.118Z,9.00
2019-05-12T00:23:22.407Z,8.90
2019-05-12T00:25:38.787Z,8.80
2019-05-12T00:28:08.692Z,8.80
2019-05-12T00:30:41.969Z,8.80
2019-05-12T00:33:11.772Z,8.70
2019-05-12T00:35:41.453Z,8.70
2019-05-12T00:38:11.183Z,8.60
2019-05-12T00:40:40.955Z,8.60
2019-05-12T00:43:10.903Z,8.50
2019-05-12T00:45:40.750Z,8.40
2019-05-12T00:48:10.415Z,8.40
2019-05-12T00:50:40.050Z,8.40
2019-05-12T00:53:09.825Z,8.40
2019-05-12T00:55:39.491Z,8.50
2019-05-12T00:58:09.644Z,8.50
2019-05-12T01:00:41.482Z,8.40
2019-05-12T01:03:10.741Z,8.50
2019-05-12T01:05:40.631Z,8.50
2019-05-12T01:08:10.270Z,8.60
2019-05-12T01:10:39.934Z,8.60
2019-05-12T01:13:09.769Z,8.60
2019-05-12T01:15:39.384Z,8.70
2019-05-12T01:18:09.713Z,8.70
2019-05-12T01:20:40.738Z,8.80
2019-05-12T01:23:10.419Z,8.80
2019-05-12T01:25:40.160Z,8.80
2019-05-12T01:28:09.845Z,8.80
2019-05-12T01:30:39.631Z,8.80
2019-05-12T01:33:09.339Z,8.80
2019-05-12T01:35:39.404Z,8.90
2019-05-12T01:38:09.070Z,9.00
2019-05-12T01:40:39.701Z,9.00
2019-05-12T01:43:09.685Z,9.00
2019-05-12T01:45:39.759Z,8.90
2019-05-12T01:48:09.575Z,8.90
2019-05-12T01:50:39.413Z,8.90
2019-05-12T01:53:09.165Z,8.80
2019-05-12T01:55:39.205Z,8.80
2019-05-12T01:58:09.174Z,8.70
2019-05-12T02:00:39.438Z,8.60
2019-05-12T02:03:09.689Z,8.60
2019-05-12T02:05:42.652Z,8.60
2019-05-12T02:08:20.454Z,8.60
2019-05-12T02:10:53.420Z,8.50
2019-05-12T02:13:23.398Z,8.50
2019-05-12T02:15:53.071Z,8.50
2019-05-12T02:18:22.724Z,8.60
2019-05-12T02:20:52.414Z,8.50
2019-05-12T02:23:22.332Z,8.60
2019-05-12T02:25:51.974Z,8.50
2019-05-12T02:28:21.650Z,8.50
2019-05-12T02:30:51.392Z,8.50
2019-05-12T02:33:24.234Z,8.50
2019-05-12T02:35:54.840Z,8.50
2019-05-12T02:38:25.108Z,8.40
2019-05-12T02:40:55.596Z,8.40
2019-05-12T02:43:25.895Z,8.40
2019-05-12T02:45:55.651Z,8.40
2019-05-12T02:48:25.284Z,8.40
2019-05-12T02:50:55.009Z,8.40
2019-05-12T02:53:25.041Z,8.40
2019-05-12T02:55:56.823Z,8.40
2019-05-12T02:58:29.179Z,8.40
2019-05-12T03:01:00.472Z,8.30
2019-05-12T03:03:35.267Z,8.30
2019-05-12T03:06:05.645Z,8.20
2019-05-12T03:08:37.639Z,8.10
2019-05-12T03:11:08.276Z,8.00
2019-05-12T03:13:38.243Z,8.00
2019-05-12T03:16:07.928Z,7.90
2019-05-12T03:18:37.559Z,7.80
2019-05-12T03:21:07.231Z,7.80
2019-05-12T03:23:36.916Z,7.80
2019-05-12T03:26:06.629Z,7.70
2019-05-12T03:28:36.327Z,7.70
2019-05-12T03:31:08.187Z,7.60
2019-05-12T03:33:43.554Z,7.50
2019-05-12T03:36:10.284Z,7.50
2019-05-12T03:38:40.495Z,7.50
2019-05-12T03:41:29.587Z,7.40
2019-05-12T03:43:59.431Z,7.40
2019-05-12T03:46:29.097Z,7.40
2019-05-12T03:48:58.787Z,7.40
2019-05-12T03:51:29.539Z,7.40
2019-05-12T03:53:59.343Z,7.40
2019-05-12T03:56:29.071Z,7.40
2019-05-12T03:58:58.894Z,7.50
2019-05-12T04:01:28.645Z,7.40
2019-05-12T04:04:09.932Z,7.50
2019-05-12T04:06:39.627Z,7.50
2019-05-12T04:09:09.764Z,7.50
2019-05-12T04:11:39.422Z,7.50
2019-05-12T04:14:14.821Z,7.50
2019-05-12T04:16:45.191Z,7.50
2019-05-12T04:19:15.348Z,7.50
2019-05-12T04:21:46.056Z,7.60
2019-05-12T04:24:15.814Z,7.60
2019-05-12T04:26:45.551Z,7.70
2019-05-12T04:29:15.730Z,7.70
2019-05-12T04:31:46.861Z,7.70
2019-05-12T04:34:19.234Z,7.80
2019-05-12T04:36:47.909Z,7.90
2019-05-12T04:39:17.726Z,8.00
2019-05-12T04:41:47.494Z,8.20
2019-05-12T04:44:17.162Z,8.30
2019-05-12T04:46:46.946Z,8.60
2019-05-12T04:49:16.679Z,8.60
2019-05-12T04:51:46.382Z,8.60
2019-05-12T04:54:16.043Z,8.80
2019-05-12T04:56:45.887Z,8.90
2019-05-12T04:59:16.139Z,8.90
2019-05-12T05:01:46.056Z,8.90
2019-05-12T05:04:15.963Z,8.90
2019-05-12T05:06:46.846Z,8.80
2019-05-12T05:09:16.647Z,8.70
2019-05-12T05:11:47.337Z,8.70
2019-05-12T05:14:17.030Z,8.70
2019-05-12T05:16:46.770Z,8.70
2019-05-12T05:19:16.417Z,8.80
2019-05-12T05:21:46.211Z,8.80
2019-05-12T05:24:15.923Z,8.90
2019-05-12T05:26:45.702Z,9.20
2019-05-12T05:29:15.386Z,9.50
2019-05-12T05:31:45.142Z,9.60
2019-05-12T05:34:15.124Z,9.50
2019-05-12T05:36:44.949Z,9.50
2019-05-12T05:39:14.686Z,9.40
2019-05-12T05:41:46.482Z,9.20
2019-05-12T05:44:16.231Z,9.10
2019-05-12T05:46:49.982Z,9.00
2019-05-12T05:49:17.298Z,9.00
2019-05-12T05:51:54.259Z,8.90
2019-05-12T05:54:22.730Z,9.00
2019-05-12T05:56:58.152Z,9.00
2019-05-12T05:59:30.985Z,9.10
2019-05-12T06:01:54.903Z,9.40
2019-05-12T06:04:24.530Z,9.80
2019-05-12T06:06:56.071Z,9.90
2019-05-12T06:09:26.094Z,9.90
2019-05-12T06:11:59.093Z,9.80
2019-05-12T06:14:27.499Z,10.00
2019-05-12T06:16:57.232Z,10.70
2019-05-12T06:19:27.165Z,11.60
2019-05-12T06:21:56.967Z,12.40
2019-05-12T06:24:28.604Z,13.20
2019-05-12T06:27:18.598Z,14.20
2019-05-12T06:29:45.310Z,15.10
2019-05-12T06:32:15.124Z,16.10
2019-05-12T06:34:44.826Z,16.40
2019-05-12T06:37:17.147Z,16.80
2019-05-12T06:39:50.816Z,17.20
2019-05-12T06:42:17.818Z,17.10
2019-05-12T06:44:49.073Z,16.50
2019-05-12T06:47:19.693Z,15.40
2019-05-12T06:49:54.720Z,14.10
2019-05-12T06:52:23.523Z,13.10
2019-05-12T06:54:56.658Z,12.30
2019-05-12T06:57:28.853Z,11.80
2019-05-12T06:59:58.340Z,11.50
2019-05-12T07:02:30.295Z,11.90
2019-05-12T07:05:04.130Z,13.10
2019-05-12T07:07:41.752Z,14.50
2019-05-12T07:10:12.040Z,15.40
2019-05-12T07:12:54.064Z,15.70
2019-05-12T07:15:14.142Z,15.60
2019-05-12T07:17:50.046Z,15.60
2019-05-12T07:20:20.304Z,16.20
2019-05-12T07:22:50.274Z,16.40
2019-05-12T07:25:22.810Z,15.80
2019-05-12T07:27:55.181Z,14.80
2019-05-12T07:30:32.687Z,14.00
2019-05-12T07:33:04.259Z,13.50
2019-05-12T07:35:34.769Z,13.60
2019-05-12T07:38:05.114Z,13.50
2019-05-12T07:40:37.929Z,13.10
2019-05-12T07:43:15.452Z,12.70
2019-05-12T07:45:44.149Z,11.90
2019-05-12T07:48:14.006Z,11.40
2019-05-12T07:50:43.786Z,11.00
2019-05-12T07:53:14.514Z,10.90
2019-05-12T07:55:49.419Z,10.90
2019-05-12T07:58:24.101Z,11.00
2019-05-12T08:01:02.421Z,11.10
2019-05-12T08:03:27.341Z,11.30
2019-05-12T08:06:01.544Z,11.60
2019-05-12T08:08:28.651Z,12.00
2019-05-12T08:10:58.384Z,12.30
2019-05-12T08:13:31.281Z,12.40
2019-05-12T08:15:59.998Z,12.70
2019-05-12T08:18:30.767Z,13.20
2019-05-12T08:21:03.741Z,13.80
2019-05-12T08:23:33.995Z,14.40
2019-05-12T08:26:12.519Z,15.00
2019-05-12T08:28:40.239Z,15.50
2019-05-12T08:31:07.186Z,15.70
2019-05-12T08:33:37.338Z,15.50
2019-05-12T08:36:11.347Z,15.20
2019-05-12T08:38:38.834Z,15.20
2019-05-12T08:41:08.843Z,15.60
2019-05-12T08:43:40.514Z,16.10
2019-05-12T08:46:12.894Z,15.20
2019-05-12T08:48:44.379Z,14.40
2019-05-12T08:51:16.998Z,14.00
2019-05-12T08:53:45.491Z,13.90
2019-05-12T08:56:19.378Z,13.60
2019-05-12T08:58:50.584Z,13.30
2019-05-12T09:01:20.414Z,13.30
2019-05-12T09:03:50.622Z,13.90
2019-05-12T09:06:20.651Z,14.40
2019-05-12T09:08:54.061Z,14.50
2019-05-12T09:11:24.233Z,14.00
2019-05-12T09:14:00.648Z,13.60
2019-05-12T09:16:25.787Z,13.60
2019-05-12T09:19:00.110Z,13.40
2019-05-12T09:21:37.152Z,13.20
2019-05-12T09:24:13.679Z,12.90
2019-05-12T09:26:49.021Z,12.60
2019-05-12T09:29:19.129Z,12.50
2019-05-12T09:31:50.667Z,12.40
2019-05-12T09:34:23.517Z,12.50
2019-05-12T09:36:59.477Z,12.90
2019-05-12T09:39:24.748Z,13.30
2019-05-12T09:41:55.570Z,13.40
2019-05-12T09:44:26.376Z,13.40
2019-05-12T09:46:56.622Z,13.40
2019-05-12T09:49:31.346Z,13.60
2019-05-12T09:51:57.888Z,13.70
2019-05-12T09:54:35.256Z,13.50
2019-05-12T09:56:59.915Z,13.70
2019-05-12T09:59:33.492Z,13.60
2019-05-12T10:02:03.718Z,13.40
2019-05-12T10:04:34.018Z,13.10
2019-05-12T10:07:03.968Z,12.90
2019-05-12T10:09:35.241Z,13.00
2019-05-12T10:12:05.716Z,13.20
2019-05-12T10:14:35.593Z,13.50
2019-05-12T10:17:05.517Z,13.50
2019-05-12T10:19:35.154Z,13.40
2019-05-12T10:22:05.136Z,13.30
2019-05-12T10:24:41.565Z,13.60
2019-05-12T10:27:06.180Z,13.80
2019-05-12T10:29:37.890Z,13.80
2019-05-12T10:32:10.283Z,13.70
2019-05-12T10:34:40.474Z,13.50
2019-05-12T10:37:13.207Z,13.50
2019-05-12T10:39:42.442Z,13.50
2019-05-12T10:42:13.735Z,13.60
2019-05-12T10:44:43.788Z,13.80
2019-05-12T10:47:13.638Z,13.90
2019-05-12T10:49:44.137Z,13.80
2019-05-12T10:52:15.271Z,13.40
2019-05-12T10:54:45.013Z,13.30
2019-05-12T10:57:14.860Z,13.50
2019-05-12T10:59:48.413Z,13.60
2019-05-12T11:02:20.360Z,13.60
2019-05-12T11:04:47.960Z,13.70
2019-05-12T11:07:17.791Z,13.80
2019-05-12T11:10:11.647Z,13.70
2019-05-12T11:12:44.157Z,13.50
2019-05-12T11:15:14.606Z,13.30
2019-05-12T11:18:20.614Z,13.30
2019-05-12T11:20:47.376Z,13.60
2019-05-12T11:23:24.252Z,13.80
2019-05-12T11:25:59.151Z,13.70
2019-05-12T11:28:33.631Z,13.60
2019-05-12T11:31:03.797Z,13.50
2019-05-12T11:33:34.118Z,13.40
2019-05-12T11:36:04.502Z,13.50
2019-05-12T11:38:36.471Z,13.60
2019-05-12T11:41:10.034Z,13.60
2019-05-12T11:43:38.769Z,13.70
2019-05-12T11:46:08.552Z,13.40
2019-05-12T11:48:40.342Z,13.30
2019-05-12T11:51:10.359Z,13.40
2019-05-12T11:53:44.546Z,13.50
2019-05-12T11:56:14.623Z,13.50
2019-05-12T11:58:47.360Z,13.70
2019-05-12T12:01:17.845Z,13.70
2019-05-12T12:03:47.547Z,13.60
2019-05-12T12:06:17.325Z,13.50
2019-05-12T12:08:47.097Z,13.30
2019-05-12T12:11:24.273Z,13.50
2019-05-12T12:13:50.624Z,13.60
2019-05-12T12:16:20.495Z,13.80
2019-05-12T12:18:59.542Z,13.80
2019-05-12T12:21:23.699Z,13.80
2019-05-12T12:23:53.538Z,13.80
2019-05-12T12:26:30.023Z,13.80
2019-05-12T12:28:58.148Z,13.80
2019-05-12T12:31:35.590Z,13.70
2019-05-12T12:34:01.466Z,13.60
2019-05-12T12:36:34.157Z,13.50
2019-05-12T12:39:05.146Z,13.60
2019-05-12T12:41:34.988Z,13.70
2019-05-12T12:44:04.761Z,13.60
2019-05-12T12:46:34.474Z,13.50
2019-05-12T12:49:06.369Z,13.60
2019-05-12T12:51:35.583Z,13.70
2019-05-12T12:54:05.352Z,13.80
2019-05-12T12:56:35.367Z,13.90
2019-05-12T12:59:10.368Z,13.90
2019-05-12T13:01:37.383Z,13.80
2019-05-12T13:04:07.149Z,13.70
2019-05-12T13:06:38.218Z,13.60
2019-05-12T13:09:18.598Z,13.50
2019-05-12T13:11:39.597Z,13.50
2019-05-12T13:14:09.358Z,13.50
2019-05-12T13:16:39.071Z,13.40
2019-05-12T13:19:15.477Z,13.40
2019-05-12T13:21:40.091Z,13.30
2019-05-12T13:24:09.935Z,13.40
2019-05-12T13:26:39.647Z,13.40
2019-05-12T13:29:09.337Z,13.30
2019-05-12T13:31:41.104Z,13.30
2019-05-12T13:34:10.367Z,13.40
2019-05-12T13:36:40.006Z,13.30
2019-05-12T13:39:11.310Z,13.30
2019-05-12T13:41:41.187Z,13.20
2019-05-12T13:44:13.482Z,13.20
2019-05-12T13:46:43.743Z,13.20
2019-05-12T13:49:14.195Z,13.30
2019-05-12T13:51:48.445Z,13.20
2019-05-12T13:54:20.178Z,13.30
2019-05-12T13:56:47.517Z,13.40
2019-05-12T13:59:20.892Z,13.50
2019-05-12T14:01:48.682Z,13.50
2019-05-12T14:04:22.300Z,13.60
2019-05-12T14:06:53.270Z,13.50
2019-05-12T14:09:23.895Z,13.40
2019-05-12T14:11:53.899Z,13.30
2019-05-12T14:14:23.887Z,13.20
2019-05-12T14:16:59.376Z,13.10
2019-05-12T14:19:30.215Z,13.10
2019-05-12T14:21:57.571Z,13.10
2019-05-12T14:24:33.222Z,13.30
2019-05-12T14:26:58.806Z,13.30
2019-05-12T14:29:30.608Z,13.20
2019-05-12T14:32:03.031Z,13.10
2019-05-12T14:34:31.374Z,13.00
2019-05-12T14:37:06.903Z,12.90
2019-05-12T14:39:34.423Z,12.70
2019-05-12T14:42:04.465Z,12.60
2019-05-12T14:44:35.971Z,12.70
2019-05-12T14:47:05.790Z,12.70
2019-05-12T14:49:35.487Z,12.70
2019-05-12T14:52:08.037Z,12.70
2019-05-12T14:54:37.875Z,12.80
2019-05-12T14:57:07.623Z,12.80
2019-05-12T14:59:41.131Z,12.80
2019-05-12T15:02:08.710Z,12.80
2019-05-12T15:04:38.584Z,12.80
2019-05-12T15:07:10.129Z,12.70
2019-05-12T15:09:39.844Z,12.60
2019-05-12T15:12:10.471Z,12.50
2019-05-12T15:14:40.321Z,12.60
2019-05-12T15:17:13.815Z,12.70
2019-05-12T15:19:43.884Z,12.80
2019-05-12T15:22:14.800Z,12.80
2019-05-12T15:24:49.158Z,12.80
2019-05-12T15:27:15.799Z,12.80
2019-05-12T15:29:50.045Z,12.80
2019-05-12T15:32:17.090Z,12.60
2019-05-12T15:34:46.909Z,12.60
2019-05-12T15:37:16.637Z,12.40
2019-05-12T15:39:46.368Z,12.20
2019-05-12T15:42:16.149Z,12.40
2019-05-12T15:44:47.423Z,12.30
2019-05-12T15:47:17.288Z,12.40
2019-05-12T15:49:46.937Z,12.40
2019-05-12T15:52:16.623Z,12.30
2019-05-12T15:54:51.116Z,12.40
2019-05-12T15:57:18.053Z,12.50
2019-05-12T15:59:47.905Z,12.40
2019-05-12T16:02:17.670Z,12.40
2019-05-12T16:04:48.583Z,12.50
2019-05-12T17:14:24.256Z,11.80
2019-05-12T17:16:54.402Z,11.80
2019-05-12T17:19:24.275Z,11.80
2019-05-12T17:21:55.530Z,11.70
2019-05-12T17:24:25.593Z,11.70
2019-05-12T17:26:55.244Z,11.70
2019-05-12T17:29:25.160Z,11.80
2019-05-12T17:31:54.864Z,11.70
2019-05-12T17:34:25.917Z,11.70
2019-05-12T17:37:00.072Z,11.50
2019-05-12T17:39:29.596Z,11.50
2019-05-12T17:41:58.666Z,11.60
2019-05-12T17:44:31.261Z,11.60
2019-05-12T17:46:59.953Z,11.60
2019-05-12T17:49:30.927Z,11.60
2019-05-12T17:52:04.406Z,11.50
2019-05-12T17:54:34.180Z,11.50
2019-05-12T17:57:04.259Z,11.40
2019-05-12T17:59:36.783Z,11.30
2019-05-12T18:02:13.206Z,11.20
2019-05-12T18:04:37.908Z,11.20
2019-05-12T18:07:13.304Z,11.20
2019-05-12T18:09:41.491Z,11.20
2019-05-12T18:12:13.655Z,11.30
2019-05-12T18:14:51.569Z,11.30
2019-05-12T18:17:15.471Z,11.20
2019-05-12T18:19:45.136Z,11.10
2019-05-12T18:22:14.845Z,11.10
2019-05-12T18:24:49.365Z,11.10
2019-05-12T18:27:15.998Z,11.00
2019-05-12T18:29:45.816Z,11.00
2019-05-12T18:32:15.497Z,10.90
2019-05-12T18:34:45.333Z,10.80
2019-05-12T18:37:15.317Z,10.80
2019-05-12T18:39:47.846Z,10.80
2019-05-12T18:42:17.572Z,10.90
2019-05-12T18:44:47.446Z,10.80
2019-05-12T18:47:23.390Z,10.70
2019-05-12T18:49:50.157Z,10.70
2019-05-12T18:52:19.995Z,10.60
2019-05-12T18:54:52.349Z,10.70
2019-05-12T18:57:23.605Z,10.60
2019-05-12T18:59:57.618Z,10.60
2019-05-12T19:02:28.381Z,10.50
2019-05-12T19:04:55.613Z,10.50
2019-05-12T19:07:38.678Z,10.50
2019-05-12T19:09:57.133Z,10.50
2019-05-12T19:12:32.110Z,10.40
2019-05-12T19:14:59.981Z,10.40
2019-05-12T19:17:29.909Z,10.40
2019-05-12T19:20:01.548Z,10.30
2019-05-12T19:22:33.509Z,10.30
2019-05-12T19:25:04.039Z,10.20
2019-05-12T19:27:34.798Z,10.20
2019-05-12T19:30:05.466Z,10.20
2019-05-12T19:32:36.679Z,10.10
2019-05-12T19:35:09.500Z,10.10
2019-05-12T19:37:42.074Z,10.10
2019-05-12T19:40:16.617Z,10.10
2019-05-12T19:42:42.389Z,10.00
2019-05-12T19:45:21.348Z,10.00
2019-05-12T19:47:44.778Z,10.00
2019-05-12T19:50:18.478Z,9.90
2019-05-12T19:52:53.416Z,9.90
2019-05-12T19:55:27.548Z,9.90
2019-05-12T19:58:03.213Z,9.90
2019-05-12T20:00:33.522Z,9.90
2019-05-12T20:03:04.479Z,9.80
2019-05-12T20:05:34.938Z,9.90
2019-05-12T20:08:04.836Z,9.80
2019-05-12T20:10:36.199Z,9.70
2019-05-12T20:13:05.981Z,9.70
2019-05-12T20:15:41.047Z,9.70
2019-05-12T20:18:09.253Z,9.70
2019-05-12T20:20:43.950Z,9.70
2019-05-12T20:23:10.632Z,9.70
2019-05-12T20:25:40.401Z,9.70
2019-05-12T20:28:11.558Z,9.60
2019-05-12T20:30:43.759Z,9.60
2019-05-12T20:33:13.845Z,9.60
2019-05-12T20:35:47.388Z,9.60
2019-05-12T20:38:15.526Z,9.50
2019-05-12T20:40:45.479Z,9.50
2019-05-12T20:43:15.356Z,9.50
2019-05-12T20:45:45.873Z,9.50
2019-05-12T20:48:19.744Z,9.40
2019-05-12T20:50:48.658Z,9.50
2019-05-12T20:53:24.736Z,9.40
2019-05-12T20:55:50.311Z,9.40
2019-05-12T20:58:20.032Z,9.30
2019-05-12T21:00:50.252Z,9.30
2019-05-12T21:03:20.179Z,9.30
2019-05-12T21:05:50.822Z,9.30
2019-05-12T21:08:23.429Z,9.30
2019-05-12T21:10:54.183Z,9.30
2019-05-12T21:13:27.133Z,9.20
2019-05-12T21:15:55.551Z,9.10
2019-05-12T21:18:25.258Z,9.10
2019-05-12T21:20:55.106Z,9.00
2019-05-12T21:23:24.941Z,9.00
2019-05-12T21:25:59.334Z,9.00
2019-05-12T21:28:28.702Z,9.00
2019-05-12T21:30:58.439Z,8.90
2019-05-12T21:33:31.345Z,8.90
2019-05-12T21:36:05.589Z,8.90
2019-05-12T21:38:35.287Z,8.80
2019-05-12T21:41:07.625Z,8.80
2019-05-12T21:43:38.281Z,8.80
2019-05-12T21:46:12.439Z,8.80
2019-05-12T21:48:39.738Z,8.80
2019-05-12T21:51:15.418Z,8.80
2019-05-12T21:53:43.575Z,8.70
2019-05-12T21:56:13.998Z,8.70
2019-05-12T21:58:53.453Z,8.70
2019-05-12T22:01:16.164Z,8.70
2019-05-12T22:03:57.734Z,8.60
2019-05-12T22:06:21.737Z,8.60
2019-05-12T22:08:55.326Z,8.60
2019-05-12T22:11:23.971Z,8.50
2019-05-12T22:13:59.923Z,8.50
2019-05-12T22:16:29.535Z,8.40
2019-05-12T22:18:59.392Z,8.50
2019-05-12T22:21:29.586Z,8.50
2019-05-12T22:23:59.481Z,8.40
2019-05-12T22:26:30.707Z,8.40
2019-05-12T22:29:00.797Z,8.30
2019-05-12T22:31:30.573Z,8.30
2019-05-12T22:34:00.414Z,8.30
2019-05-12T22:36:30.291Z,8.30
2019-05-12T22:39:01.100Z,8.20
2019-05-12T22:41:36.884Z,8.20
2019-05-12T22:44:05.200Z,8.20
2019-05-12T22:46:35.805Z,8.20
2019-05-12T22:49:10.391Z,8.20
2019-05-12T22:51:37.325Z,8.10
2019-05-12T22:54:10.528Z,8.10
2019-05-12T22:56:38.613Z,8.10
2019-05-12T22:59:08.409Z,8.10
2019-05-12T23:01:41.582Z,8.00
2019-05-12T23:04:09.753Z,8.00
2019-05-12T23:06:42.055Z,8.00
2019-05-12T23:09:10.865Z,8.00
2019-05-12T23:11:40.624Z,8.00
2019-05-12T23:14:12.730Z,8.00
2019-05-12T23:16:44.219Z,7.90
2019-05-12T23:19:15.141Z,7.90
2019-05-12T23:21:49.298Z,7.90
2019-05-12T23:24:17.444Z,7.80
2019-05-12T23:26:47.923Z,7.80
2019-05-12T23:29:20.603Z,7.80
2019-05-12T23:31:49.956Z,7.80
2019-05-12T23:34:19.660Z,7.80
2019-05-12T23:36:50.577Z,7.80
2019-05-12T23:39:20.910Z,7.80
2019-05-12T23:41:50.721Z,7.80
2019-05-12T23:44:20.600Z,7.70
2019-05-12T23:46:50.327Z,7.60
2019-05-12T23:49:20.110Z,7.60
2019-05-12T23:51:49.925Z,7.60
2019-05-12T23:54:19.624Z,7.60
2019-05-12T23:56:50.188Z,7.60
2019-05-12T23:59:19.909Z,7.60
